Time;durP1;ratioP1;P1;durP2;ratioP2;P2;SDS_P1;SDS_P2;PMS_P1;PMS_P2;Temp;Humidity;BMP_temperature;BMP_pressure;BME280_temperature;BME280_humidity;BME280_pressure;Samples;Min_cycle;Max_cycle;Signal;HPM_P1;HPM_P2
2020/12/15 00:00:24;;;;;;;6.97;3.00;;;7.60;92.90;;;;;;4991894;28;20130;-68
2020/12/15 00:02:49;;;;;;;7.77;2.97;;;7.60;92.90;;;;;;4990750;28;20062;-69
2020/12/15 00:05:15;;;;;;;7.33;3.07;;;7.60;92.80;;;;;;4990567;28;20038;-69
2020/12/15 00:07:41;;;;;;;5.83;2.70;;;7.60;92.80;;;;;;4991247;28;20470;-69
2020/12/15 00:10:06;;;;;;;6.50;2.90;;;7.60;92.70;;;;;;4991802;28;20084;-68
2020/12/15 00:12:32;;;;;;;7.27;3.07;;;7.60;92.70;;;;;;4989731;28;20122;-68
2020/12/15 00:14:58;;;;;;;8.67;3.10;;;7.60;92.60;;;;;;4991137;28;20470;-69
2020/12/15 00:17:24;;;;;;;7.27;3.17;;;7.50;92.60;;;;;;4990311;28;20030;-68
2020/12/15 00:19:49;;;;;;;6.63;3.20;;;7.50;92.60;;;;;;4989811;28;20562;-69
2020/12/15 00:22:15;;;;;;;7.63;3.03;;;7.60;92.60;;;;;;4989778;28;20038;-68
2020/12/15 00:24:41;;;;;;;7.23;3.10;;;7.60;92.50;;;;;;4991479;28;20088;-68
2020/12/15 00:27:06;;;;;;;7.53;3.07;;;7.60;92.50;;;;;;4989480;28;20169;-68
2020/12/15 00:29:32;;;;;;;7.40;2.90;;;7.50;92.40;;;;;;4991620;28;20073;-68
2020/12/15 00:31:58;;;;;;;8.17;3.50;;;7.50;92.40;;;;;;4989454;28;20515;-69
2020/12/15 00:34:23;;;;;;;6.20;3.00;;;7.50;92.40;;;;;;4991464;28;20038;-69
2020/12/15 00:36:49;;;;;;;6.17;2.97;;;7.50;92.30;;;;;;4991386;28;20176;-69
2020/12/15 00:39:15;;;;;;;8.43;3.23;;;7.50;92.30;;;;;;4990850;28;20038;-69
2020/12/15 00:41:46;;;;;;;7.40;3.20;;;7.50;92.30;;;;;;4991193;28;20113;-69
2020/12/15 00:44:12;;;;;;;6.93;2.93;;;7.50;92.30;;;;;;4993744;28;20038;-70
2020/12/15 00:46:37;;;;;;;7.23;3.13;;;7.50;92.30;;;;;;4995252;28;20061;-69
2020/12/15 00:49:03;;;;;;;7.23;3.07;;;7.50;92.20;;;;;;4993946;28;20042;-69
2020/12/15 00:51:29;;;;;;;7.23;3.07;;;7.50;92.20;;;;;;4994721;28;20523;-68
2020/12/15 00:53:55;;;;;;;7.23;3.33;;;7.50;92.10;;;;;;4993281;28;20035;-68
2020/12/15 00:56:22;;;;;;;6.37;3.17;;;7.50;92.10;;;;;;4993328;28;20404;-69
2020/12/15 00:58:48;;;;;;;6.27;3.07;;;7.50;92.10;;;;;;4994964;28;20034;-69
2020/12/15 01:01:16;;;;;;;6.47;2.93;;;7.50;92.00;;;;;;4993461;28;20031;-69
2020/12/15 01:03:42;;;;;;;7.63;3.57;;;7.40;92.00;;;;;;4992704;28;20026;-69
2020/12/15 01:06:10;;;;;;;7.07;3.40;;;7.40;92.00;;;;;;4993656;28;20034;-69
2020/12/15 01:08:37;;;;;;;8.27;3.23;;;7.40;91.90;;;;;;4993189;28;20041;-69
2020/12/15 01:11:03;;;;;;;8.73;3.70;;;7.40;91.90;;;;;;4994929;28;20046;-69
2020/12/15 01:13:32;;;;;;;6.83;3.43;;;7.40;91.90;;;;;;4992439;28;20034;-69
2020/12/15 01:16:04;;;;;;;7.77;3.53;;;7.30;91.90;;;;;;4993433;28;20062;-69
2020/12/15 01:18:31;;;;;;;9.60;3.90;;;7.30;92.00;;;;;;4993536;28;20054;-69
2020/12/15 01:20:57;;;;;;;8.27;3.50;;;7.20;92.00;;;;;;4992818;28;20042;-69
2020/12/15 01:23:24;;;;;;;6.87;3.73;;;7.20;92.00;;;;;;4992635;28;20381;-69
2020/12/15 01:25:58;;;;;;;9.30;4.00;;;7.20;92.00;;;;;;4994081;28;20045;-70
2020/12/15 01:28:24;;;;;;;7.80;3.97;;;7.10;92.00;;;;;;4993307;28;20030;-70
2020/12/15 01:30:50;;;;;;;8.43;4.10;;;7.20;92.00;;;;;;4994411;28;20555;-70
2020/12/15 01:33:28;;;;;;;9.67;4.30;;;7.10;92.00;;;;;;4994086;28;20038;-69
2020/12/15 01:36:11;;;;;;;8.87;3.83;;;7.10;92.00;;;;;;4993987;28;20045;-69
2020/12/15 01:38:49;;;;;;;7.63;3.97;;;7.00;92.10;;;;;;4993543;28;20044;-75
2020/12/15 01:41:17;;;;;;;8.07;4.17;;;7.00;92.10;;;;;;4992639;28;20035;-75
2020/12/15 01:43:58;;;;;;;10.20;4.73;;;7.00;92.20;;;;;;4993726;28;20566;-75
2020/12/15 01:46:27;;;;;;;8.53;4.20;;;7.00;92.30;;;;;;4976883;28;20125;-75
2020/12/15 01:48:55;;;;;;;8.60;3.97;;;6.90;92.30;;;;;;4992838;28;20149;-75
2020/12/15 01:51:23;;;;;;;8.10;4.13;;;6.90;92.30;;;;;;4992572;28;20031;-74
2020/12/15 01:54:00;;;;;;;9.87;4.13;;;6.90;92.30;;;;;;4991609;28;20045;-75
2020/12/15 01:56:33;;;;;;;9.07;4.32;;;6.90;92.40;;;;;;4992274;28;20031;-75
2020/12/15 01:59:13;;;;;;;8.17;4.90;;;6.90;92.40;;;;;;4992635;28;20042;-75
2020/12/15 02:01:44;;;;;;;9.50;4.37;;;6.90;92.40;;;;;;4975601;28;20035;-75
2020/12/15 02:04:14;;;;;;;8.37;4.37;;;6.80;92.40;;;;;;4992768;28;20125;-75
2020/12/15 02:07:00;;;;;;;8.47;4.27;;;6.80;92.50;;;;;;4993140;28;20039;-75
2020/12/15 02:09:27;;;;;;;8.37;4.73;;;6.80;92.50;;;;;;4992587;28;20092;-75
2020/12/15 02:12:08;;;;;;;8.33;4.23;;;6.80;92.60;;;;;;4991511;28;20438;-74
2020/12/15 02:14:37;;;;;;;10.77;4.40;;;6.80;92.60;;;;;;4992445;28;20041;-75
2020/12/15 02:17:03;;;;;;;9.37;4.90;;;6.90;92.70;;;;;;4991976;28;20038;-75
2020/12/15 02:20:00;;;;;;;8.53;4.10;;;6.90;92.70;;;;;;4993358;28;20072;-75
2020/12/15 02:22:26;;;;;;;9.30;4.43;;;6.90;92.70;;;;;;4991471;28;20042;-75
2020/12/15 02:24:52;;;;;;;8.23;4.23;;;6.90;92.80;;;;;;4992140;28;20520;-75
2020/12/15 02:27:18;;;;;;;8.50;4.40;;;6.90;92.80;;;;;;4991863;28;20042;-75
2020/12/15 02:29:44;;;;;;;8.27;4.17;;;6.90;92.70;;;;;;4992107;28;20423;-75
2020/12/15 02:32:12;;;;;;;9.00;4.73;;;6.90;92.70;;;;;;4991031;28;20446;-74
2020/12/15 02:34:44;;;;;;;10.83;4.60;;;6.90;92.70;;;;;;4991903;28;20568;-75
2020/12/15 02:37:13;;;;;;;7.73;4.40;;;6.90;92.70;;;;;;4992018;28;20041;-76
2020/12/15 02:40:01;;;;;;;7.40;4.40;;;6.90;92.70;;;;;;4992920;28;20499;-75
2020/12/15 02:42:45;;;;;;;9.37;4.83;;;6.90;92.70;;;;;;4991058;28;20108;-75
2020/12/15 02:45:15;;;;;;;8.00;4.50;;;6.90;92.80;;;;;;4991901;28;20034;-75
2020/12/15 02:47:43;;;;;;;10.17;4.47;;;6.90;92.80;;;;;;4991258;28;20034;-73
2020/12/15 02:50:11;;;;;;;10.80;4.20;;;6.90;92.80;;;;;;4992925;28;20031;-75
2020/12/15 02:52:38;;;;;;;12.93;5.17;;;6.90;92.90;;;;;;4991304;28;20605;-75
2020/12/15 02:55:04;;;;;;;8.23;4.80;;;6.90;92.90;;;;;;4991319;28;20045;-75
2020/12/15 02:57:38;;;;;;;9.77;5.10;;;6.90;92.90;;;;;;4991578;28;20146;-75
2020/12/15 03:00:10;;;;;;;9.37;5.17;;;7.00;92.90;;;;;;4990908;28;20561;-75
2020/12/15 03:02:39;;;;;;;10.80;5.27;;;7.00;93.00;;;;;;4992417;28;20038;-75
2020/12/15 03:05:06;;;;;;;7.97;4.57;;;7.00;93.00;;;;;;4990558;28;20053;-75
2020/12/15 03:07:33;;;;;;;10.43;5.67;;;7.00;92.90;;;;;;4990928;28;20057;-75
2020/12/15 03:10:07;;;;;;;9.97;5.73;;;7.10;93.00;;;;;;4990871;28;20031;-75
2020/12/15 03:12:40;;;;;;;9.80;4.90;;;7.00;93.20;;;;;;4990760;28;20035;-75
2020/12/15 03:15:07;;;;;;;7.67;4.33;;;7.10;93.00;;;;;;4990889;28;20497;-75
2020/12/15 03:17:33;;;;;;;8.90;4.97;;;7.10;92.90;;;;;;4991205;28;20026;-75
2020/12/15 03:20:00;;;;;;;9.17;4.97;;;7.10;93.20;;;;;;4990995;28;20042;-75
2020/12/15 03:22:27;;;;;;;8.53;4.87;;;7.00;92.90;;;;;;4974126;28;20494;-75
2020/12/15 03:24:59;;;;;;;10.13;5.13;;;7.10;92.90;;;;;;4991230;28;20038;-75
2020/12/15 03:27:31;;;;;;;9.30;5.07;;;7.00;92.90;;;;;;4990827;28;20132;-75
2020/12/15 03:29:58;;;;;;;10.07;5.27;;;7.00;93.00;;;;;;4991074;28;20134;-75
2020/12/15 03:32:23;;;;;;;9.20;5.00;;;7.10;93.00;;;;;;4973739;28;20131;-74
2020/12/15 03:34:51;;;;;;;9.50;4.80;;;7.00;93.00;;;;;;4990975;28;20045;-75
2020/12/15 03:37:17;;;;;;;8.17;4.90;;;7.10;93.00;;;;;;4974648;28;20042;-75
2020/12/15 03:39:49;;;;;;;8.93;4.90;;;7.00;93.00;;;;;;4975396;28;20049;-75
2020/12/15 03:42:32;;;;;;;9.67;5.50;;;7.00;92.90;;;;;;4989741;28;20145;-75
2020/12/15 03:44:58;;;;;;;9.07;4.93;;;7.00;92.90;;;;;;4990685;28;20117;-75
2020/12/15 03:47:24;;;;;;;9.77;4.97;;;7.00;92.90;;;;;;4990647;28;20039;-75
2020/12/15 03:49:50;;;;;;;8.80;5.10;;;7.00;93.00;;;;;;4991599;28;20035;-74
2020/12/15 03:52:16;;;;;;;12.00;5.20;;;6.90;92.90;;;;;;4990116;28;20031;-75
2020/12/15 03:55:06;;;;;;;10.43;4.70;;;6.90;93.00;;;;;;5010747;28;20398;-75
2020/12/15 03:57:46;;;;;;;8.33;4.33;;;6.90;93.00;;;;;;5010129;28;20399;-75
2020/12/15 04:00:19;;;;;;;8.77;5.10;;;6.90;93.00;;;;;;5009799;28;20044;-75
2020/12/15 04:02:59;;;;;;;11.80;5.35;;;6.90;93.00;;;;;;4994893;28;20038;-74
2020/12/15 04:05:38;;;;;;;10.50;5.20;;;6.90;93.00;;;;;;5010082;28;20038;-75
2020/12/15 04:08:05;;;;;;;9.17;5.20;;;6.80;93.00;;;;;;5009572;28;20042;-75
2020/12/15 04:10:32;;;;;;;9.90;5.57;;;6.90;93.00;;;;;;5011179;28;20034;-75
2020/12/15 04:12:59;;;;;;;12.03;5.40;;;6.80;93.00;;;;;;5008330;28;20038;-75
2020/12/15 04:15:30;;;;;;;10.80;5.17;;;6.80;93.10;;;;;;5011670;28;20041;-75
2020/12/15 04:17:59;;;;;;;9.00;5.20;;;6.80;93.10;;;;;;5025641;28;20068;-76
2020/12/15 04:20:26;;;;;;;8.67;5.03;;;6.80;93.10;;;;;;5003250;28;20034;-77
2020/12/15 04:22:51;;;;;;;9.27;5.37;;;6.80;93.10;;;;;;5048985;28;20049;-75
2020/12/15 04:25:23;;;;;;;10.40;5.30;;;6.80;93.10;;;;;;5008159;28;20053;-74
2020/12/15 04:27:49;;;;;;;9.00;5.00;;;6.80;93.10;;;;;;5008560;28;20120;-75
2020/12/15 04:30:15;;;;;;;9.07;5.03;;;6.80;93.10;;;;;;5007999;28;20034;-76
2020/12/15 04:32:42;;;;;;;10.20;5.50;;;6.80;93.20;;;;;;4991232;28;20502;-75
2020/12/15 04:35:13;;;;;;;9.50;5.27;;;6.80;93.20;;;;;;5008444;28;20030;-75
2020/12/15 04:37:43;;;;;;;11.30;5.33;;;6.80;93.20;;;;;;4992267;28;20056;-75
2020/12/15 04:40:12;;;;;;;10.00;5.50;;;6.80;93.20;;;;;;5008191;28;20038;-75
2020/12/15 04:42:45;;;;;;;10.57;5.65;;;6.80;93.20;;;;;;5040411;28;20088;-74
2020/12/15 04:45:11;;;;;;;10.40;5.37;;;6.80;93.20;;;;;;4992033;28;20438;-75
2020/12/15 04:47:48;;;;;;;10.10;5.30;;;6.80;93.20;;;;;;4975832;28;20045;-74
2020/12/15 04:50:24;;;;;;;8.60;5.00;;;6.80;93.20;;;;;;5006637;28;20041;-75
2020/12/15 04:52:58;;;;;;;8.97;5.27;;;6.90;93.30;;;;;;4976934;28;20091;-75
2020/12/15 04:55:50;;;;;;;8.33;5.37;;;6.80;93.20;;;;;;5010144;28;20033;-74
2020/12/15 04:58:23;;;;;;;9.38;5.47;;;6.80;93.20;;;;;;5042609;28;20034;-75
2020/12/15 05:00:51;;;;;;;9.23;5.30;;;6.90;93.20;;;;;;5042041;28;20411;-75
2020/12/15 05:03:44;;;;;;;9.23;5.17;;;6.80;93.10;;;;;;5041736;28;20034;-75
2020/12/15 05:06:15;;;;;;;9.33;5.47;;;6.80;93.20;;;;;;4989631;28;20081;-75
2020/12/15 05:08:47;;;;;;;9.23;5.53;;;6.80;93.20;;;;;;5006091;28;20041;-75
2020/12/15 05:11:14;;;;;;;9.73;5.63;;;6.80;93.20;;;;;;4999190;28;20056;-75
2020/12/15 05:13:55;;;;;;;10.52;6.15;;;6.80;93.20;;;;;;4992649;28;20145;-75
2020/12/15 05:16:20;;;;;;;10.40;5.90;;;6.80;93.20;;;;;;5007057;28;20038;-75
2020/12/15 05:19:03;;;;;;;12.33;6.20;;;6.80;93.30;;;;;;4993255;28;20041;-75
2020/12/15 05:21:32;;;;;;;10.00;5.43;;;6.80;93.30;;;;;;5005464;28;20038;-75
2020/12/15 05:24:10;;;;;;;10.50;6.10;;;6.80;93.30;;;;;;4992226;28;20113;-75
2020/12/15 05:26:45;;;;;;;9.33;5.47;;;6.80;93.40;;;;;;5007575;28;20030;-75
2020/12/15 05:29:17;;;;;;;10.33;5.80;;;6.90;93.40;;;;;;5010002;28;20042;-75
2020/12/15 05:32:16;;;;;;;10.20;6.00;;;6.80;93.30;;;;;;5011878;28;20030;-75
2020/12/15 05:35:09;;;;;;;9.73;6.00;;;6.90;93.40;;;;;;4998038;28;20045;-75
2020/12/15 05:37:55;;;;;;;11.97;6.00;;;6.90;93.30;;;;;;5013938;28;20410;-74
2020/12/15 05:40:42;;;;;;;10.90;6.00;;;6.90;93.30;;;;;;5012979;28;20045;-75
2020/12/15 05:43:38;;;;;;;9.33;5.90;;;7.00;93.40;;;;;;5011895;28;20037;-75
2020/12/15 05:46:06;;;;;;;11.20;6.05;;;7.00;93.40;;;;;;5011644;28;20117;-75
2020/12/15 05:48:33;;;;;;;10.47;6.37;;;7.00;93.40;;;;;;5011520;28;20088;-75
2020/12/15 05:50:59;;;;;;;11.53;5.67;;;7.00;93.50;;;;;;4995780;28;20415;-75
2020/12/15 05:53:25;;;;;;;10.97;5.97;;;7.00;93.30;;;;;;4995197;28;20045;-74
2020/12/15 05:55:50;;;;;;;10.70;6.00;;;7.00;93.30;;;;;;5013501;28;20041;-75
2020/12/15 05:58:16;;;;;;;9.90;5.60;;;7.00;93.30;;;;;;5013649;28;20073;-75
2020/12/15 06:00:42;;;;;;;10.23;5.60;;;7.10;93.30;;;;;;5013203;28;20529;-75
2020/12/15 06:03:08;;;;;;;11.00;6.37;;;7.00;93.30;;;;;;4995282;28;20125;-75
2020/12/15 06:05:36;;;;;;;10.57;6.37;;;7.10;93.30;;;;;;5012902;28;20057;-74
2020/12/15 06:08:03;;;;;;;10.47;6.10;;;7.00;93.30;;;;;;5012245;28;20111;-75
2020/12/15 06:10:30;;;;;;;11.43;6.20;;;7.10;93.50;;;;;;5012232;28;20038;-75
2020/12/15 06:12:57;;;;;;;10.30;6.30;;;7.00;93.20;;;;;;5012336;28;20041;-75
2020/12/15 06:15:24;;;;;;;11.90;6.67;;;7.10;93.20;;;;;;5012077;28;20046;-75
2020/12/15 06:17:53;;;;;;;12.80;6.90;;;7.10;93.20;;;;;;5012702;28;20400;-75
2020/12/15 06:20:19;;;;;;;10.77;6.80;;;7.00;93.50;;;;;;5013383;28;20125;-75
2020/12/15 06:22:53;;;;;;;11.67;6.80;;;7.10;93.40;;;;;;5010903;28;20076;-73
2020/12/15 06:25:26;;;;;;;11.33;6.30;;;7.00;93.30;;;;;;5013129;28;20038;-75
2020/12/15 06:28:09;;;;;;;11.80;7.33;;;7.10;93.30;;;;;;5012612;28;20041;-74
2020/12/15 06:30:40;;;;;;;11.97;7.23;;;7.10;93.30;;;;;;5013107;28;20041;-75
2020/12/15 06:33:11;;;;;;;10.73;6.27;;;7.10;93.30;;;;;;5011969;28;20124;-75
2020/12/15 06:35:38;;;;;;;10.98;6.93;;;7.10;93.30;;;;;;4995505;28;20033;-75
2020/12/15 06:38:05;;;;;;;13.07;7.30;;;7.10;93.30;;;;;;5012375;28;20184;-75
2020/12/15 06:40:42;;;;;;;11.57;7.07;;;7.10;93.30;;;;;;5012573;28;20042;-75
2020/12/15 06:43:08;;;;;;;11.73;7.20;;;7.10;93.30;;;;;;5011878;28;20513;-75
2020/12/15 06:45:34;;;;;;;13.20;7.93;;;7.10;93.30;;;;;;5011401;28;20037;-75
2020/12/15 06:48:04;;;;;;;12.40;7.37;;;7.10;93.40;;;;;;5012560;28;20499;-75
2020/12/15 06:50:43;;;;;;;11.32;6.45;;;7.10;93.40;;;;;;5012344;28;20057;-75
2020/12/15 06:53:16;;;;;;;12.00;6.80;;;7.10;93.30;;;;;;5012058;28;20399;-75
2020/12/15 06:55:43;;;;;;;12.37;7.33;;;7.10;93.40;;;;;;4994568;28;20038;-75
2020/12/15 06:58:09;;;;;;;11.90;6.63;;;7.10;93.40;;;;;;5012517;28;20037;-75
2020/12/15 07:00:38;;;;;;;11.17;7.23;;;7.10;93.40;;;;;;5011983;28;20045;-75
2020/12/15 07:03:05;;;;;;;13.50;7.33;;;7.10;93.50;;;;;;5010495;28;20092;-75
2020/12/15 07:05:31;;;;;;;10.63;6.77;;;7.20;93.50;;;;;;5011917;28;20100;-75
2020/12/15 07:08:00;;;;;;;12.17;6.97;;;7.10;93.50;;;;;;5012248;28;20129;-75
2020/12/15 07:10:28;;;;;;;13.33;7.70;;;7.20;93.50;;;;;;5011042;28;20038;-75
2020/12/15 07:12:58;;;;;;;12.10;7.13;;;7.20;93.50;;;;;;5011443;28;20053;-75
2020/12/15 07:15:28;;;;;;;12.35;7.70;;;7.20;93.50;;;;;;5012151;28;20399;-75
2020/12/15 07:17:55;;;;;;;12.35;7.05;;;7.20;93.60;;;;;;5011694;28;20030;-75
2020/12/15 07:20:23;;;;;;;12.53;7.10;;;7.20;93.60;;;;;;5012014;28;20491;-75
2020/12/15 07:22:49;;;;;;;12.50;7.20;;;7.30;93.60;;;;;;5011168;28;20049;-75
2020/12/15 07:25:17;;;;;;;12.47;6.97;;;7.30;93.60;;;;;;5011978;28;20034;-75
2020/12/15 07:27:44;;;;;;;13.07;7.40;;;7.30;93.60;;;;;;5011900;28;20033;-75
2020/12/15 07:30:17;;;;;;;12.63;7.30;;;7.30;93.60;;;;;;5011443;28;20037;-75
2020/12/15 07:32:44;;;;;;;13.33;6.97;;;7.30;93.60;;;;;;4993702;28;20038;-75
2020/12/15 07:35:22;;;;;;;11.53;6.93;;;7.30;93.60;;;;;;5011291;28;20042;-75
2020/12/15 07:37:50;;;;;;;14.23;7.50;;;7.30;93.60;;;;;;5012381;28;20030;-70
2020/12/15 07:40:19;;;;;;;13.00;7.57;;;7.30;93.70;;;;;;5007550;28;20049;-70
2020/12/15 07:42:59;;;;;;;11.07;7.00;;;7.40;93.70;;;;;;5007074;28;20040;-70
2020/12/15 07:45:27;;;;;;;11.75;7.13;;;7.40;93.70;;;;;;5004989;28;20042;-70
2020/12/15 07:47:53;;;;;;;12.50;6.67;;;7.40;93.70;;;;;;5021611;28;20048;-70
2020/12/15 07:50:27;;;;;;;11.70;6.93;;;7.40;93.70;;;;;;5006841;28;20045;-70
2020/12/15 07:52:54;;;;;;;13.30;7.20;;;7.40;93.60;;;;;;5010448;28;20044;-70
2020/12/15 07:55:22;;;;;;;14.20;7.73;;;7.40;93.70;;;;;;5010895;28;20061;-70
2020/12/15 07:57:47;;;;;;;12.47;7.70;;;7.40;93.60;;;;;;5011278;28;20088;-70
2020/12/15 08:00:16;;;;;;;12.13;7.40;;;7.40;93.70;;;;;;5010939;28;20050;-70
2020/12/15 08:02:46;;;;;;;15.10;7.47;;;7.40;93.70;;;;;;5010634;28;20491;-70
2020/12/15 08:05:13;;;;;;;12.43;7.30;;;7.50;93.70;;;;;;5010152;28;20053;-70
2020/12/15 08:07:46;;;;;;;12.17;6.90;;;7.50;93.80;;;;;;5010544;28;20468;-70
2020/12/15 08:10:13;;;;;;;13.90;7.40;;;7.50;93.80;;;;;;5042726;28;20049;-70
2020/12/15 08:12:40;;;;;;;13.07;7.00;;;7.50;93.80;;;;;;5009921;28;20087;-70
2020/12/15 08:15:06;;;;;;;13.10;7.87;;;7.60;93.90;;;;;;5042833;28;20081;-70
2020/12/15 08:17:33;;;;;;;10.83;6.60;;;7.60;93.90;;;;;;5010680;28;20034;-71
2020/12/15 08:20:05;;;;;;;12.13;7.07;;;7.70;93.90;;;;;;5010891;28;20188;-70
2020/12/15 08:22:37;;;;;;;13.67;7.00;;;7.70;93.80;;;;;;5009121;28;20034;-70
2020/12/15 08:25:03;;;;;;;11.00;7.23;;;7.80;93.80;;;;;;5010929;28;20034;-70
2020/12/15 08:27:29;;;;;;;12.80;6.63;;;7.80;93.80;;;;;;5010928;28;20057;-70
2020/12/15 08:29:55;;;;;;;12.60;7.17;;;7.80;93.80;;;;;;5010578;28;20392;-70
2020/12/15 08:32:30;;;;;;;10.90;6.80;;;7.90;93.70;;;;;;5010447;28;20034;-70
2020/12/15 08:35:03;;;;;;;13.73;7.43;;;7.90;93.70;;;;;;5007538;28;20049;-70
2020/12/15 08:37:32;;;;;;;12.87;7.40;;;7.90;93.80;;;;;;5008526;28;20026;-70
2020/12/15 08:39:58;;;;;;;13.80;7.63;;;8.00;93.80;;;;;;5006374;28;20034;-70
2020/12/15 08:42:24;;;;;;;14.47;7.77;;;8.00;93.80;;;;;;5001244;28;20376;-70
2020/12/15 08:44:50;;;;;;;12.87;7.40;;;8.00;93.70;;;;;;5010741;28;20526;-70
2020/12/15 08:47:18;;;;;;;12.77;7.70;;;8.10;93.70;;;;;;5010328;28;20042;-70
2020/12/15 08:49:45;;;;;;;11.30;7.60;;;8.00;93.70;;;;;;5011015;28;20396;-70
2020/12/15 08:52:20;;;;;;;12.77;7.90;;;8.10;93.70;;;;;;5008687;28;20127;-70
2020/12/15 08:54:46;;;;;;;13.60;7.30;;;8.00;93.60;;;;;;5010894;28;20053;-70
2020/12/15 08:57:15;;;;;;;12.77;7.20;;;8.10;93.70;;;;;;5009166;28;20491;-71
2020/12/15 08:59:42;;;;;;;12.37;7.50;;;8.10;93.70;;;;;;5010648;28;20033;-70
2020/12/15 09:02:12;;;;;;;12.97;7.70;;;8.10;93.90;;;;;;5009870;28;20049;-71
2020/12/15 09:04:39;;;;;;;12.47;7.37;;;8.10;93.80;;;;;;5011238;28;20058;-70
2020/12/15 09:07:17;;;;;;;12.50;7.67;;;8.10;93.60;;;;;;4996875;28;20063;-70
2020/12/15 09:09:43;;;;;;;14.27;8.00;;;8.10;93.60;;;;;;5013060;28;20034;-70
2020/12/15 09:12:15;;;;;;;13.27;7.50;;;8.10;93.60;;;;;;5006587;28;20042;-70
2020/12/15 09:14:40;;;;;;;12.60;7.63;;;8.10;93.50;;;;;;5012862;28;20041;-71
2020/12/15 09:17:06;;;;;;;14.70;8.57;;;8.10;93.60;;;;;;5012161;28;20077;-71
2020/12/15 09:19:40;;;;;;;13.27;8.27;;;8.10;93.70;;;;;;5004534;28;20583;-71
2020/12/15 09:22:06;;;;;;;12.60;7.90;;;8.10;93.60;;;;;;5012361;28;20566;-71
2020/12/15 09:24:42;;;;;;;15.00;7.90;;;8.10;93.60;;;;;;5045529;28;20442;-71
2020/12/15 09:27:20;;;;;;;13.53;8.17;;;8.20;93.80;;;;;;5013718;28;20038;-71
2020/12/15 09:29:47;;;;;;;11.63;7.30;;;8.20;93.90;;;;;;5029073;28;20494;-71
2020/12/15 09:32:12;;;;;;;13.93;7.57;;;8.30;93.90;;;;;;5013609;28;20033;-71
2020/12/15 09:42:13;;;;;;;13.87;7.77;;;8.70;93.90;;;;;;5013093;28;20049;-71
2020/12/15 09:44:38;;;;;;;12.95;7.55;;;8.80;93.50;;;;;;5045559;28;20034;-71
2020/12/15 09:47:04;;;;;;;13.15;7.85;;;8.80;93.60;;;;;;5013270;28;20041;-71
2020/12/15 09:49:30;;;;;;;13.18;7.70;;;8.90;93.60;;;;;;5013752;28;20038;-70
2020/12/15 09:51:56;;;;;;;12.77;7.55;;;8.90;93.50;;;;;;5012866;28;20120;-72
2020/12/15 09:54:22;;;;;;;14.05;7.88;;;9.00;93.50;;;;;;5013777;28;20137;-71
2020/12/15 09:56:48;;;;;;;12.73;7.68;;;9.00;93.50;;;;;;5045390;28;20034;-71
2020/12/15 09:59:16;;;;;;;13.85;8.13;;;9.00;93.30;;;;;;5011594;28;20065;-71
2020/12/15 10:01:42;;;;;;;13.32;8.15;;;9.00;93.40;;;;;;5013017;28;20026;-71
2020/12/15 10:04:09;;;;;;;13.02;7.57;;;9.10;93.60;;;;;;5012972;28;20487;-71
2020/12/15 10:06:36;;;;;;;13.07;8.15;;;9.20;93.40;;;;;;5044878;28;20105;-71
2020/12/15 10:09:03;;;;;;;12.77;7.97;;;9.10;93.30;;;;;;5045026;28;20040;-70
2020/12/15 10:11:29;;;;;;;11.82;7.80;;;9.20;93.30;;;;;;5027719;28;20042;-71
2020/12/15 10:13:55;;;;;;;12.38;7.40;;;9.30;93.30;;;;;;5010473;28;20054;-71
2020/12/15 10:16:21;;;;;;;15.68;8.02;;;9.30;93.30;;;;;;5011427;28;20045;-71
2020/12/15 10:18:47;;;;;;;12.38;7.85;;;9.50;93.30;;;;;;5012820;28;20033;-71
2020/12/15 10:21:16;;;;;;;13.00;7.05;;;9.70;93.30;;;;;;5013075;28;20528;-70
2020/12/15 10:23:42;;;;;;;13.27;7.28;;;9.80;93.10;;;;;;5010864;28;20061;-71
2020/12/15 10:26:08;;;;;;;12.05;7.57;;;9.80;92.90;;;;;;5013054;28;20423;-70
2020/12/15 10:28:34;;;;;;;13.73;7.85;;;9.80;92.60;;;;;;5012543;28;20025;-71
2020/12/15 10:31:00;;;;;;;13.55;8.15;;;9.80;92.60;;;;;;5013026;28;20126;-70
2020/12/15 10:33:26;;;;;;;12.02;7.57;;;9.70;92.20;;;;;;5044103;28;20487;-70
2020/12/15 10:35:52;;;;;;;13.40;8.40;;;9.60;92.40;;;;;;5012378;28;20091;-71
2020/12/15 10:38:17;;;;;;;12.63;7.43;;;9.60;92.50;;;;;;5012995;28;20491;-71
2020/12/15 10:40:46;;;;;;;12.18;7.70;;;9.50;92.60;;;;;;5027534;28;20419;-71
2020/12/15 10:43:13;;;;;;;15.18;8.27;;;9.50;92.90;;;;;;5012168;28;20399;-70
2020/12/15 10:45:39;;;;;;;12.05;7.47;;;9.70;93.20;;;;;;5011403;28;20467;-70
2020/12/15 10:48:05;;;;;;;13.23;7.88;;;9.90;93.20;;;;;;5012236;28;20038;-71
2020/12/15 10:50:30;;;;;;;12.23;7.47;;;10.20;93.30;;;;;;5012681;28;20104;-70
2020/12/15 10:52:56;;;;;;;13.13;7.03;;;10.40;92.90;;;;;;5011610;28;20041;-70
2020/12/15 10:55:22;;;;;;;12.50;7.35;;;10.60;92.50;;;;;;5012597;28;20038;-70
2020/12/15 10:57:48;;;;;;;11.30;7.38;;;10.60;92.30;;;;;;5011017;28;20380;-70
2020/12/15 11:00:14;;;;;;;11.75;7.63;;;10.70;92.20;;;;;;5012184;28;20483;-71
2020/12/15 11:02:40;;;;;;;12.27;8.05;;;10.70;91.90;;;;;;5011706;28;20499;-70
2020/12/15 11:05:05;;;;;;;12.25;7.47;;;10.60;91.50;;;;;;5011904;28;20030;-70
2020/12/15 11:07:32;;;;;;;11.45;7.75;;;10.40;91.40;;;;;;5012247;28;20160;-70
2020/12/15 11:09:57;;;;;;;13.50;7.63;;;10.30;91.70;;;;;;5043794;28;20068;-70
2020/12/15 11:12:23;;;;;;;12.07;6.95;;;10.20;91.80;;;;;;5011331;28;20058;-70
2020/12/15 11:14:49;;;;;;;12.15;7.07;;;10.20;91.80;;;;;;5012193;28;20514;-70
2020/12/15 11:17:15;;;;;;;13.80;8.32;;;10.20;91.80;;;;;;4993955;28;20566;-71
2020/12/15 11:19:40;;;;;;;12.40;8.00;;;10.20;91.60;;;;;;5010666;28;20498;-70
2020/12/15 11:22:06;;;;;;;12.43;7.90;;;10.20;91.80;;;;;;5011614;28;20125;-70
2020/12/15 11:24:32;;;;;;;13.73;7.43;;;10.20;91.70;;;;;;5011729;28;20042;-71
2020/12/15 11:26:58;;;;;;;12.65;8.13;;;10.10;91.60;;;;;;5011044;28;20041;-70
2020/12/15 11:29:24;;;;;;;12.20;7.57;;;10.10;91.50;;;;;;5011635;28;20096;-71
2020/12/15 11:31:53;;;;;;;12.45;7.88;;;10.00;91.50;;;;;;5011169;28;20096;-70
2020/12/15 11:34:19;;;;;;;13.20;8.00;;;10.00;91.40;;;;;;5012078;28;20046;-70
2020/12/15 11:36:45;;;;;;;12.32;7.82;;;10.00;91.50;;;;;;5010059;28;20434;-70
2020/12/15 11:39:11;;;;;;;12.55;7.63;;;9.90;91.50;;;;;;5011876;28;20034;-70
2020/12/15 11:41:38;;;;;;;13.63;7.88;;;9.80;91.70;;;;;;5010883;28;20092;-70
2020/12/15 11:44:05;;;;;;;13.75;8.65;;;9.80;91.70;;;;;;5011482;28;20518;-70
2020/12/15 11:46:31;;;;;;;13.13;8.05;;;9.90;91.70;;;;;;5010356;28;20125;-70
2020/12/15 11:48:57;;;;;;;12.85;8.38;;;9.90;91.60;;;;;;5011200;28;20581;-70
2020/12/15 11:51:22;;;;;;;15.02;8.85;;;9.90;91.70;;;;;;5043391;28;20380;-70
2020/12/15 11:53:48;;;;;;;14.38;8.52;;;9.90;91.70;;;;;;5042241;28;20053;-70
2020/12/15 11:56:18;;;;;;;11.70;7.63;;;9.90;91.60;;;;;;5011321;28;20034;-70
2020/12/15 11:58:44;;;;;;;13.32;8.88;;;9.80;91.50;;;;;;5010102;28;20042;-70
2020/12/15 12:01:11;;;;;;;15.75;9.00;;;9.80;91.60;;;;;;5009645;28;20053;-70
2020/12/15 12:03:36;;;;;;;14.73;8.20;;;9.80;91.60;;;;;;5011133;28;20038;-70
2020/12/15 12:06:02;;;;;;;15.15;9.02;;;9.70;91.50;;;;;;5010816;28;20038;-71
2020/12/15 12:08:28;;;;;;;13.77;8.95;;;9.70;91.50;;;;;;5011493;28;20034;-70
2020/12/15 12:10:54;;;;;;;16.45;9.52;;;9.60;91.50;;;;;;5009901;28;20506;-70
2020/12/15 12:13:20;;;;;;;14.13;8.82;;;9.60;91.60;;;;;;5010393;28;20037;-70
2020/12/15 12:15:46;;;;;;;13.85;9.50;;;9.60;91.60;;;;;;5011270;28;20533;-70
2020/12/15 12:18:12;;;;;;;13.63;8.57;;;9.60;91.70;;;;;;5010762;28;20042;-70
2020/12/15 12:20:37;;;;;;;13.73;9.18;;;9.60;91.70;;;;;;5011254;28;20503;-70
2020/12/15 12:23:04;;;;;;;12.80;8.43;;;9.60;91.70;;;;;;5010697;28;20057;-70
2020/12/15 12:25:30;;;;;;;16.40;9.63;;;9.60;91.80;;;;;;5025684;28;20072;-70
2020/12/15 12:27:56;;;;;;;17.40;9.48;;;9.60;91.80;;;;;;5011084;28;20460;-70
2020/12/15 12:30:22;;;;;;;13.80;9.20;;;9.70;91.80;;;;;;5009455;28;20046;-70
2020/12/15 12:32:49;;;;;;;13.85;9.00;;;9.70;91.80;;;;;;5010574;28;20045;-70
2020/12/15 12:35:15;;;;;;;14.90;8.57;;;9.70;91.70;;;;;;5011137;28;20042;-70
2020/12/15 12:37:41;;;;;;;14.23;9.13;;;9.70;91.70;;;;;;5010963;28;20032;-70
2020/12/15 12:40:07;;;;;;;15.20;9.00;;;9.70;91.80;;;;;;5014967;28;20116;-70
2020/12/15 12:42:32;;;;;;;13.65;8.95;;;9.70;91.80;;;;;;5013980;28;20481;-70
2020/12/15 12:44:58;;;;;;;14.52;8.85;;;9.70;91.80;;;;;;5013751;28;20096;-70
2020/12/15 12:47:24;;;;;;;12.93;8.75;;;9.70;91.80;;;;;;5015063;28;20045;-70
2020/12/15 12:49:50;;;;;;;16.15;9.20;;;9.70;91.70;;;;;;5013129;28;20454;-70
2020/12/15 12:52:16;;;;;;;16.17;8.50;;;9.70;91.60;;;;;;5014381;28;20519;-70
2020/12/15 12:54:41;;;;;;;13.77;8.85;;;9.60;91.70;;;;;;5014385;28;20033;-71
2020/12/15 12:57:07;;;;;;;14.27;9.15;;;9.60;91.70;;;;;;5014738;28;20034;-70
2020/12/15 12:59:33;;;;;;;13.95;8.38;;;9.60;91.80;;;;;;5046349;28;20487;-70
2020/12/15 13:02:01;;;;;;;12.90;8.18;;;9.60;91.90;;;;;;5013675;28;20038;-70
2020/12/15 13:04:28;;;;;;;12.88;8.10;;;9.60;91.90;;;;;;5014611;28;20034;-70
2020/12/15 13:06:54;;;;;;;14.25;8.63;;;9.60;91.90;;;;;;5014081;28;20037;-70